sensor_id;sensor_type;location;lat;lon;timestamp;temperature;humidity
37204;DHT22;23098;48.054;10.636;2023-06-10T00:01:44;15.60;98.40
37204;DHT22;23098;48.054;10.636;2023-06-10T00:04:13;15.50;98.60
37204;DHT22;23098;48.054;10.636;2023-06-10T00:06:38;15.50;99.00
37204;DHT22;23098;48.054;10.636;2023-06-10T00:09:05;15.40;99.20
37204;DHT22;23098;48.054;10.636;2023-06-10T00:11:33;15.40;99.60
37204;DHT22;23098;48.054;10.636;2023-06-10T00:14:00;15.40;99.90
37204;DHT22;23098;48.054;10.636;2023-06-10T00:16:26;15.20;99.90
37204;DHT22;23098;48.054;10.636;2023-06-10T00:18:51;15.20;99.90
37204;DHT22;23098;48.054;10.636;2023-06-10T00:21:17;15.20;99.90
37204;DHT22;23098;48.054;10.636;2023-06-10T00:23:44;15.10;99.90
37204;DHT22;23098;48.054;10.636;2023-06-10T00:26:09;15.20;99.90
37204;DHT22;23098;48.054;10.636;2023-06-10T00:28:35;15.20;99.90
37204;DHT22;23098;48.054;10.636;2023-06-10T00:31:01;15.10;99.90
37204;DHT22;23098;48.054;10.636;2023-06-10T00:33:27;15.10;99.90
37204;DHT22;23098;48.054;10.636;2023-06-10T00:35:53;15.00;99.90
37204;DHT22;23098;48.054;10.636;2023-06-10T00:38:19;15.00;99.90
37204;DHT22;23098;48.054;10.636;2023-06-10T00:40:44;15.00;99.90
37204;DHT22;23098;48.054;10.636;2023-06-10T00:43:10;15.00;99.90
37204;DHT22;23098;48.054;10.636;2023-06-10T00:45:35;14.90;99.90
37204;DHT22;23098;48.054;10.636;2023-06-10T00:48:01;14.90;99.90
37204;DHT22;23098;48.054;10.636;2023-06-10T00:50:27;15.00;99.90
37204;DHT22;23098;48.054;10.636;2023-06-10T00:52:54;14.90;99.90
37204;DHT22;23098;48.054;10.636;2023-06-10T00:55:20;14.90;99.90
37204;DHT22;23098;48.054;10.636;2023-06-10T00:57:46;14.90;99.90
37204;DHT22;23098;48.054;10.636;2023-06-10T01:00:14;14.90;99.90
37204;DHT22;23098;48.054;10.636;2023-06-10T01:02:40;14.90;99.90
37204;DHT22;23098;48.054;10.636;2023-06-10T01:05:06;14.90;99.90
37204;DHT22;23098;48.054;10.636;2023-06-10T01:07:58;14.80;99.90
37204;DHT22;23098;48.054;10.636;2023-06-10T01:13:01;14.80;99.90
37204;DHT22;23098;48.054;10.636;2023-06-10T01:15:34;14.80;99.90
37204;DHT22;23098;48.054;10.636;2023-06-10T01:18:04;14.70;99.90
37204;DHT22;23098;48.054;10.636;2023-06-10T01:20:34;14.80;99.90
37204;DHT22;23098;48.054;10.636;2023-06-10T01:23:02;14.80;99.90
37204;DHT22;23098;48.054;10.636;2023-06-10T01:25:29;14.70;99.90
37204;DHT22;23098;48.054;10.636;2023-06-10T01:28:14;14.70;99.90
37204;DHT22;23098;48.054;10.636;2023-06-10T01:30:55;14.70;99.90
37204;DHT22;23098;48.054;10.636;2023-06-10T01:33:27;14.60;99.90
37204;DHT22;23098;48.054;10.636;2023-06-10T01:35:53;14.60;99.90
37204;DHT22;23098;48.054;10.636;2023-06-10T01:38:21;14.60;99.90
37204;DHT22;23098;48.054;10.636;2023-06-10T01:40:49;14.50;99.90
37204;DHT22;23098;48.054;10.636;2023-06-10T01:43:15;14.40;99.90
37204;DHT22;23098;48.054;10.636;2023-06-10T01:45:40;14.40;99.90
37204;DHT22;23098;48.054;10.636;2023-06-10T01:48:06;14.30;99.90
37204;DHT22;23098;48.054;10.636;2023-06-10T01:50:32;14.30;99.90
37204;DHT22;23098;48.054;10.636;2023-06-10T01:52:59;14.20;99.90
37204;DHT22;23098;48.054;10.636;2023-06-10T01:55:24;14.10;99.90
37204;DHT22;23098;48.054;10.636;2023-06-10T01:57:50;14.10;99.90
37204;DHT22;23098;48.054;10.636;2023-06-10T02:00:17;14.10;99.90
37204;DHT22;23098;48.054;10.636;2023-06-10T02:02:42;14.10;99.90
37204;DHT22;23098;48.054;10.636;2023-06-10T02:05:08;14.10;99.90
37204;DHT22;23098;48.054;10.636;2023-06-10T02:07:34;14.10;99.90
37204;DHT22;23098;48.054;10.636;2023-06-10T02:09:59;14.00;99.90
37204;DHT22;23098;48.054;10.636;2023-06-10T02:12:25;14.00;99.90
37204;DHT22;23098;48.054;10.636;2023-06-10T02:14:51;13.90;99.90
37204;DHT22;23098;48.054;10.636;2023-06-10T02:17:16;13.90;99.90
37204;DHT22;23098;48.054;10.636;2023-06-10T02:19:42;13.80;99.90
37204;DHT22;23098;48.054;10.636;2023-06-10T02:22:08;13.80;99.90
37204;DHT22;23098;48.054;10.636;2023-06-10T02:24:36;13.80;99.90
37204;DHT22;23098;48.054;10.636;2023-06-10T02:27:03;13.80;99.90
37204;DHT22;23098;48.054;10.636;2023-06-10T02:29:29;13.80;99.90
37204;DHT22;23098;48.054;10.636;2023-06-10T02:31:54;13.60;99.90
37204;DHT22;23098;48.054;10.636;2023-06-10T02:34:20;13.70;99.90
37204;DHT22;23098;48.054;10.636;2023-06-10T02:36:46;13.60;99.90
37204;DHT22;23098;48.054;10.636;2023-06-10T02:39:11;13.60;99.90
37204;DHT22;23098;48.054;10.636;2023-06-10T02:41:37;13.60;99.90
37204;DHT22;23098;48.054;10.636;2023-06-10T02:44:03;13.60;99.90
37204;DHT22;23098;48.054;10.636;2023-06-10T02:46:29;13.60;99.90
37204;DHT22;23098;48.054;10.636;2023-06-10T02:48:54;13.50;99.90
37204;DHT22;23098;48.054;10.636;2023-06-10T02:51:20;13.50;99.90
37204;DHT22;23098;48.054;10.636;2023-06-10T02:53:46;13.50;99.90
37204;DHT22;23098;48.054;10.636;2023-06-10T02:56:12;13.50;99.90
37204;DHT22;23098;48.054;10.636;2023-06-10T02:58:38;13.50;99.90
37204;DHT22;23098;48.054;10.636;2023-06-10T03:01:03;13.60;99.90
37204;DHT22;23098;48.054;10.636;2023-06-10T03:03:29;13.60;99.90
37204;DHT22;23098;48.054;10.636;2023-06-10T03:05:56;13.60;99.90
37204;DHT22;23098;48.054;10.636;2023-06-10T03:08:21;13.60;99.90
37204;DHT22;23098;48.054;10.636;2023-06-10T03:10:47;13.60;99.90
37204;DHT22;23098;48.054;10.636;2023-06-10T03:13:12;13.60;99.90
37204;DHT22;23098;48.054;10.636;2023-06-10T03:15:39;13.60;99.90
37204;DHT22;23098;48.054;10.636;2023-06-10T03:18:06;13.50;99.90
37204;DHT22;23098;48.054;10.636;2023-06-10T03:20:32;13.50;99.90
37204;DHT22;23098;48.054;10.636;2023-06-10T03:23:02;13.50;99.90
37204;DHT22;23098;48.054;10.636;2023-06-10T03:25:27;13.50;99.90
37204;DHT22;23098;48.054;10.636;2023-06-10T03:27:54;13.50;99.90
37204;DHT22;23098;48.054;10.636;2023-06-10T03:30:19;13.50;99.90
37204;DHT22;23098;48.054;10.636;2023-06-10T03:32:45;13.40;99.90
37204;DHT22;23098;48.054;10.636;2023-06-10T03:35:10;13.40;99.90
37204;DHT22;23098;48.054;10.636;2023-06-10T03:37:37;13.40;99.90
37204;DHT22;23098;48.054;10.636;2023-06-10T03:40:02;13.40;99.90
37204;DHT22;23098;48.054;10.636;2023-06-10T03:42:28;13.30;99.90
37204;DHT22;23098;48.054;10.636;2023-06-10T03:44:54;13.40;99.90
37204;DHT22;23098;48.054;10.636;2023-06-10T03:47:20;13.40;99.90
37204;DHT22;23098;48.054;10.636;2023-06-10T03:49:46;13.40;99.90
37204;DHT22;23098;48.054;10.636;2023-06-10T03:52:11;13.50;99.90
37204;DHT22;23098;48.054;10.636;2023-06-10T03:54:37;13.50;99.90
37204;DHT22;23098;48.054;10.636;2023-06-10T03:57:03;13.60;99.90
37204;DHT22;23098;48.054;10.636;2023-06-10T03:59:28;13.70;99.90
37204;DHT22;23098;48.054;10.636;2023-06-10T04:01:54;13.70;99.90
37204;DHT22;23098;48.054;10.636;2023-06-10T04:04:20;13.80;99.90
37204;DHT22;23098;48.054;10.636;2023-06-10T04:06:45;13.80;99.90
37204;DHT22;23098;48.054;10.636;2023-06-10T04:09:12;14.00;99.90
37204;DHT22;23098;48.054;10.636;2023-06-10T04:11:38;14.40;99.90
37204;DHT22;23098;48.054;10.636;2023-06-10T04:14:03;14.90;99.90
37204;DHT22;23098;48.054;10.636;2023-06-10T04:16:29;15.40;99.90
37204;DHT22;23098;48.054;10.636;2023-06-10T04:18:54;15.90;99.90
37204;DHT22;23098;48.054;10.636;2023-06-10T04:21:20;16.40;99.90
37204;DHT22;23098;48.054;10.636;2023-06-10T04:23:47;16.90;99.90
37204;DHT22;23098;48.054;10.636;2023-06-10T04:26:12;17.80;99.90
37204;DHT22;23098;48.054;10.636;2023-06-10T04:28:38;19.00;99.70
37204;DHT22;23098;48.054;10.636;2023-06-10T04:31:04;19.50;97.90
37204;DHT22;23098;48.054;10.636;2023-06-10T04:33:30;20.30;95.70
37204;DHT22;23098;48.054;10.636;2023-06-10T04:35:56;20.60;94.80
37204;DHT22;23098;48.054;10.636;2023-06-10T04:38:21;20.60;94.50
37204;DHT22;23098;48.054;10.636;2023-06-10T04:40:47;21.50;93.80
37204;DHT22;23098;48.054;10.636;2023-06-10T04:43:13;21.50;93.00
37204;DHT22;23098;48.054;10.636;2023-06-10T04:45:38;21.10;93.90
37204;DHT22;23098;48.054;10.636;2023-06-10T04:48:04;21.60;92.50
37204;DHT22;23098;48.054;10.636;2023-06-10T04:50:30;21.60;92.30
37204;DHT22;23098;48.054;10.636;2023-06-10T04:52:58;21.50;92.50
37204;DHT22;23098;48.054;10.636;2023-06-10T04:55:24;20.30;93.10
37204;DHT22;23098;48.054;10.636;2023-06-10T04:57:50;20.60;93.40
37204;DHT22;23098;48.054;10.636;2023-06-10T05:00:16;21.30;93.60
37204;DHT22;23098;48.054;10.636;2023-06-10T05:02:42;20.70;93.40
37204;DHT22;23098;48.054;10.636;2023-06-10T05:05:08;20.60;93.50
37204;DHT22;23098;48.054;10.636;2023-06-10T05:07:33;21.20;93.00
37204;DHT22;23098;48.054;10.636;2023-06-10T05:09:59;21.20;92.80
37204;DHT22;23098;48.054;10.636;2023-06-10T05:12:25;21.50;92.30
37204;DHT22;23098;48.054;10.636;2023-06-10T05:14:51;22.20;92.30
37204;DHT22;23098;48.054;10.636;2023-06-10T05:17:17;21.60;91.60
37204;DHT22;23098;48.054;10.636;2023-06-10T05:19:42;20.30;93.60
37204;DHT22;23098;48.054;10.636;2023-06-10T05:22:08;20.30;94.20
37204;DHT22;23098;48.054;10.636;2023-06-10T05:24:34;21.30;94.00
37204;DHT22;23098;48.054;10.636;2023-06-10T05:27:00;21.70;92.20
37204;DHT22;23098;48.054;10.636;2023-06-10T05:29:25;22.90;91.80
37204;DHT22;23098;48.054;10.636;2023-06-10T05:31:51;21.70;91.60
37204;DHT22;23098;48.054;10.636;2023-06-10T05:34:17;22.60;91.90
37204;DHT22;23098;48.054;10.636;2023-06-10T05:36:42;21.80;92.00
37204;DHT22;23098;48.054;10.636;2023-06-10T05:39:09;20.90;93.20
37204;DHT22;23098;48.054;10.636;2023-06-10T05:41:35;21.30;93.10
37204;DHT22;23098;48.054;10.636;2023-06-10T05:44:00;22.20;92.60
37204;DHT22;23098;48.054;10.636;2023-06-10T05:46:26;23.20;91.60
37204;DHT22;23098;48.054;10.636;2023-06-10T05:48:51;21.80;91.80
37204;DHT22;23098;48.054;10.636;2023-06-10T05:51:17;21.30;92.70
37204;DHT22;23098;48.054;10.636;2023-06-10T05:53:42;22.30;92.60
37204;DHT22;23098;48.054;10.636;2023-06-10T05:56:08;23.20;91.80
37204;DHT22;23098;48.054;10.636;2023-06-10T05:58:33;23.10;91.50
37204;DHT22;23098;48.054;10.636;2023-06-10T06:01:00;22.70;91.10
37204;DHT22;23098;48.054;10.636;2023-06-10T06:03:26;22.20;92.60
37204;DHT22;23098;48.054;10.636;2023-06-10T06:05:53;20.70;93.20
37204;DHT22;23098;48.054;10.636;2023-06-10T06:08:19;21.80;93.10
37204;DHT22;23098;48.054;10.636;2023-06-10T06:10:45;21.90;92.40
37204;DHT22;23098;48.054;10.636;2023-06-10T06:13:10;21.00;92.70
37204;DHT22;23098;48.054;10.636;2023-06-10T06:15:36;21.40;92.70
37204;DHT22;23098;48.054;10.636;2023-06-10T06:18:01;21.90;92.30
37204;DHT22;23098;48.054;10.636;2023-06-10T06:20:27;22.60;91.90
37204;DHT22;23098;48.054;10.636;2023-06-10T06:22:53;23.20;92.10
37204;DHT22;23098;48.054;10.636;2023-06-10T06:25:21;23.60;90.90
37204;DHT22;23098;48.054;10.636;2023-06-10T06:27:47;24.00;90.60
37204;DHT22;23098;48.054;10.636;2023-06-10T06:30:13;23.70;90.30
37204;DHT22;23098;48.054;10.636;2023-06-10T06:32:38;24.40;90.90
37204;DHT22;23098;48.054;10.636;2023-06-10T06:35:04;24.50;90.30
37204;DHT22;23098;48.054;10.636;2023-06-10T06:37:33;24.70;90.10
37204;DHT22;23098;48.054;10.636;2023-06-10T06:39:58;25.60;90.00
37204;DHT22;23098;48.054;10.636;2023-06-10T06:42:24;25.00;87.40
37204;DHT22;23098;48.054;10.636;2023-06-10T06:44:49;24.00;89.70
37204;DHT22;23098;48.054;10.636;2023-06-10T06:47:15;23.50;90.80
37204;DHT22;23098;48.054;10.636;2023-06-10T06:49:47;23.80;91.20
37204;DHT22;23098;48.054;10.636;2023-06-10T06:52:15;24.20;91.30
37204;DHT22;23098;48.054;10.636;2023-06-10T06:54:41;24.80;90.60
37204;DHT22;23098;48.054;10.636;2023-06-10T06:57:07;24.40;88.50
37204;DHT22;23098;48.054;10.636;2023-06-10T06:59:33;25.30;88.50
37204;DHT22;23098;48.054;10.636;2023-06-10T07:01:58;26.00;88.50
37204;DHT22;23098;48.054;10.636;2023-06-10T07:04:24;26.40;86.80
37204;DHT22;23098;48.054;10.636;2023-06-10T07:06:50;26.90;84.50
37204;DHT22;23098;48.054;10.636;2023-06-10T07:09:15;26.30;86.20
37204;DHT22;23098;48.054;10.636;2023-06-10T07:11:41;26.40;86.30
37204;DHT22;23098;48.054;10.636;2023-06-10T07:14:07;26.50;85.80
37204;DHT22;23098;48.054;10.636;2023-06-10T07:16:32;25.90;84.00
37204;DHT22;23098;48.054;10.636;2023-06-10T07:18:58;24.70;87.00
37204;DHT22;23098;48.054;10.636;2023-06-10T07:21:23;25.00;88.50
37204;DHT22;23098;48.054;10.636;2023-06-10T07:23:49;24.30;86.40
37204;DHT22;23098;48.054;10.636;2023-06-10T07:26:17;25.00;86.80
37204;DHT22;23098;48.054;10.636;2023-06-10T07:28:43;24.70;87.40
37204;DHT22;23098;48.054;10.636;2023-06-10T07:31:09;23.30;89.70
37204;DHT22;23098;48.054;10.636;2023-06-10T07:33:34;22.30;90.60
37204;DHT22;23098;48.054;10.636;2023-06-10T07:36:00;22.40;92.00
37204;DHT22;23098;48.054;10.636;2023-06-10T07:38:26;22.30;91.90
37204;DHT22;23098;48.054;10.636;2023-06-10T07:40:52;22.10;91.90
37204;DHT22;23098;48.054;10.636;2023-06-10T07:43:18;22.30;93.10
37204;DHT22;23098;48.054;10.636;2023-06-10T07:45:43;21.60;92.80
37204;DHT22;23098;48.054;10.636;2023-06-10T07:48:09;21.30;93.30
37204;DHT22;23098;48.054;10.636;2023-06-10T07:50:35;21.30;93.50
37204;DHT22;23098;48.054;10.636;2023-06-10T07:53:01;20.90;93.70
37204;DHT22;23098;48.054;10.636;2023-06-10T07:55:27;21.10;94.30
37204;DHT22;23098;48.054;10.636;2023-06-10T07:57:53;21.20;95.00
37204;DHT22;23098;48.054;10.636;2023-06-10T08:00:20;21.10;93.30
37204;DHT22;23098;48.054;10.636;2023-06-10T08:02:46;21.20;93.40
37204;DHT22;23098;48.054;10.636;2023-06-10T08:05:12;21.50;94.20
37204;DHT22;23098;48.054;10.636;2023-06-10T08:07:37;21.40;93.00
37204;DHT22;23098;48.054;10.636;2023-06-10T08:10:05;21.60;93.00
37204;DHT22;23098;48.054;10.636;2023-06-10T08:12:32;21.30;92.80
37204;DHT22;23098;48.054;10.636;2023-06-10T08:14:57;21.20;92.60
37204;DHT22;23098;48.054;10.636;2023-06-10T08:17:23;20.90;92.90
37204;DHT22;23098;48.054;10.636;2023-06-10T08:19:49;20.70;93.50
37204;DHT22;23098;48.054;10.636;2023-06-10T08:22:15;21.10;93.50
37204;DHT22;23098;48.054;10.636;2023-06-10T08:24:40;21.60;92.70
37204;DHT22;23098;48.054;10.636;2023-06-10T08:27:06;21.60;92.50
37204;DHT22;23098;48.054;10.636;2023-06-10T08:29:32;21.70;92.60
37204;DHT22;23098;48.054;10.636;2023-06-10T08:31:58;21.90;92.40
37204;DHT22;23098;48.054;10.636;2023-06-10T08:34:24;22.10;92.20
37204;DHT22;23098;48.054;10.636;2023-06-10T08:36:50;22.10;92.00
37204;DHT22;23098;48.054;10.636;2023-06-10T08:39:21;21.70;91.80
37204;DHT22;23098;48.054;10.636;2023-06-10T08:42:09;21.90;91.90
37204;DHT22;23098;48.054;10.636;2023-06-10T08:44:36;21.80;91.20
37204;DHT22;23098;48.054;10.636;2023-06-10T08:47:13;21.60;91.80
37204;DHT22;23098;48.054;10.636;2023-06-10T08:49:43;21.30;93.00
37204;DHT22;23098;48.054;10.636;2023-06-10T08:52:14;21.50;92.20
37204;DHT22;23098;48.054;10.636;2023-06-10T08:54:43;21.40;92.10
37204;DHT22;23098;48.054;10.636;2023-06-10T08:57:11;21.80;92.50
37204;DHT22;23098;48.054;10.636;2023-06-10T08:59:39;21.90;92.30
37204;DHT22;23098;48.054;10.636;2023-06-10T09:02:07;22.30;92.80
37204;DHT22;23098;48.054;10.636;2023-06-10T09:04:34;21.50;92.10
37204;DHT22;23098;48.054;10.636;2023-06-10T09:07:00;21.30;92.60
37204;DHT22;23098;48.054;10.636;2023-06-10T09:09:28;21.80;92.50
37204;DHT22;23098;48.054;10.636;2023-06-10T09:11:56;21.90;91.60
37204;DHT22;23098;48.054;10.636;2023-06-10T09:14:21;21.80;92.10
37204;DHT22;23098;48.054;10.636;2023-06-10T09:16:47;21.90;91.20
37204;DHT22;23098;48.054;10.636;2023-06-10T09:19:15;22.10;92.10
37204;DHT22;23098;48.054;10.636;2023-06-10T09:21:41;22.70;91.70
37204;DHT22;23098;48.054;10.636;2023-06-10T09:24:06;23.10;91.30
37204;DHT22;23098;48.054;10.636;2023-06-10T09:26:32;23.60;91.10
37204;DHT22;23098;48.054;10.636;2023-06-10T09:29:06;22.80;90.80
37204;DHT22;23098;48.054;10.636;2023-06-10T09:31:36;22.30;91.30
37204;DHT22;23098;48.054;10.636;2023-06-10T09:34:12;22.40;91.30
37204;DHT22;23098;48.054;10.636;2023-06-10T09:36:38;22.30;91.70
37204;DHT22;23098;48.054;10.636;2023-06-10T09:39:04;22.40;91.60
37204;DHT22;23098;48.054;10.636;2023-06-10T09:41:35;22.70;90.90
37204;DHT22;23098;48.054;10.636;2023-06-10T09:44:01;23.10;90.10
37204;DHT22;23098;48.054;10.636;2023-06-10T09:46:30;23.10;90.80
37204;DHT22;23098;48.054;10.636;2023-06-10T09:48:57;23.10;90.10
37204;DHT22;23098;48.054;10.636;2023-06-10T09:51:23;23.40;89.90
37204;DHT22;23098;48.054;10.636;2023-06-10T09:53:52;23.10;89.50
37204;DHT22;23098;48.054;10.636;2023-06-10T09:56:18;23.50;88.90
37204;DHT22;23098;48.054;10.636;2023-06-10T09:58:45;23.10;89.30
37204;DHT22;23098;48.054;10.636;2023-06-10T10:01:13;23.40;89.70
37204;DHT22;23098;48.054;10.636;2023-06-10T10:03:45;23.20;90.00
37204;DHT22;23098;48.054;10.636;2023-06-10T10:06:12;24.10;90.20
37204;DHT22;23098;48.054;10.636;2023-06-10T10:08:38;23.30;87.50
37204;DHT22;23098;48.054;10.636;2023-06-10T10:11:03;23.60;87.70
37204;DHT22;23098;48.054;10.636;2023-06-10T10:13:29;23.20;88.80
37204;DHT22;23098;48.054;10.636;2023-06-10T10:16:00;23.20;89.80
37204;DHT22;23098;48.054;10.636;2023-06-10T10:18:29;23.60;87.70
37204;DHT22;23098;48.054;10.636;2023-06-10T10:20:58;24.00;89.70
37204;DHT22;23098;48.054;10.636;2023-06-10T10:23:32;23.60;88.00
37204;DHT22;23098;48.054;10.636;2023-06-10T10:26:00;23.40;89.10
37204;DHT22;23098;48.054;10.636;2023-06-10T10:28:37;23.50;89.40
37204;DHT22;23098;48.054;10.636;2023-06-10T10:31:08;24.00;89.50
37204;DHT22;23098;48.054;10.636;2023-06-10T10:33:57;23.90;88.70
37204;DHT22;23098;48.054;10.636;2023-06-10T10:36:24;23.50;87.30
37204;DHT22;23098;48.054;10.636;2023-06-10T10:38:50;23.80;88.80
37204;DHT22;23098;48.054;10.636;2023-06-10T10:41:16;24.20;87.40
37204;DHT22;23098;48.054;10.636;2023-06-10T10:43:44;24.20;86.80
37204;DHT22;23098;48.054;10.636;2023-06-10T10:46:15;24.70;87.20
37204;DHT22;23098;48.054;10.636;2023-06-10T10:48:42;25.50;86.20
37204;DHT22;23098;48.054;10.636;2023-06-10T10:51:08;24.80;85.00
37204;DHT22;23098;48.054;10.636;2023-06-10T10:53:37;25.10;83.60
37204;DHT22;23098;48.054;10.636;2023-06-10T10:56:16;25.10;85.60
37204;DHT22;23098;48.054;10.636;2023-06-10T10:59:04;24.50;84.50
37204;DHT22;23098;48.054;10.636;2023-06-10T11:01:43;24.60;84.90
37204;DHT22;23098;48.054;10.636;2023-06-10T11:04:11;24.90;85.10
37204;DHT22;23098;48.054;10.636;2023-06-10T11:06:37;25.40;84.10
37204;DHT22;23098;48.054;10.636;2023-06-10T11:09:29;25.60;83.30
37204;DHT22;23098;48.054;10.636;2023-06-10T11:11:57;25.90;81.50
37204;DHT22;23098;48.054;10.636;2023-06-10T11:14:30;25.30;81.30
37204;DHT22;23098;48.054;10.636;2023-06-10T11:16:59;25.20;84.30
37204;DHT22;23098;48.054;10.636;2023-06-10T11:19:38;24.90;82.80
37204;DHT22;23098;48.054;10.636;2023-06-10T11:22:16;24.30;81.60
37204;DHT22;23098;48.054;10.636;2023-06-10T11:24:44;24.80;83.60
37204;DHT22;23098;48.054;10.636;2023-06-10T11:27:22;24.90;83.50
37204;DHT22;23098;48.054;10.636;2023-06-10T11:30:17;25.10;82.20
37204;DHT22;23098;48.054;10.636;2023-06-10T11:32:44;24.20;83.90
37204;DHT22;23098;48.054;10.636;2023-06-10T11:35:09;24.50;84.30
37204;DHT22;23098;48.054;10.636;2023-06-10T11:37:36;25.10;82.50
37204;DHT22;23098;48.054;10.636;2023-06-10T11:40:02;25.90;82.20
37204;DHT22;23098;48.054;10.636;2023-06-10T11:42:28;25.90;82.10
37204;DHT22;23098;48.054;10.636;2023-06-10T11:44:54;26.20;81.90
37204;DHT22;23098;48.054;10.636;2023-06-10T11:47:20;26.20;83.00
37204;DHT22;23098;48.054;10.636;2023-06-10T11:49:56;26.30;81.50
37204;DHT22;23098;48.054;10.636;2023-06-10T11:52:31;26.20;79.90
37204;DHT22;23098;48.054;10.636;2023-06-10T11:55:05;26.10;81.10
37204;DHT22;23098;48.054;10.636;2023-06-10T11:57:34;25.80;81.70
37204;DHT22;23098;48.054;10.636;2023-06-10T12:00:05;24.70;82.20
37204;DHT22;23098;48.054;10.636;2023-06-10T12:02:31;25.50;83.50
37204;DHT22;23098;48.054;10.636;2023-06-10T12:05:10;25.50;82.60
37204;DHT22;23098;48.054;10.636;2023-06-10T12:07:36;25.20;81.30
37204;DHT22;23098;48.054;10.636;2023-06-10T12:10:01;25.20;80.60
37204;DHT22;23098;48.054;10.636;2023-06-10T12:12:27;25.60;79.60
37204;DHT22;23098;48.054;10.636;2023-06-10T12:15:00;25.20;81.20
37204;DHT22;23098;48.054;10.636;2023-06-10T12:19:57;25.20;80.30
37204;DHT22;23098;48.054;10.636;2023-06-10T12:22:23;25.10;78.40
37204;DHT22;23098;48.054;10.636;2023-06-10T12:25:04;25.70;77.70
37204;DHT22;23098;48.054;10.636;2023-06-10T12:27:30;26.40;78.40
37204;DHT22;23098;48.054;10.636;2023-06-10T12:30:01;26.20;77.90
37204;DHT22;23098;48.054;10.636;2023-06-10T12:35:05;26.20;78.80
37204;DHT22;23098;48.054;10.636;2023-06-10T12:37:32;25.70;81.50
37204;DHT22;23098;48.054;10.636;2023-06-10T12:40:01;25.80;80.90
37204;DHT22;23098;48.054;10.636;2023-06-10T12:42:28;25.70;79.40
37204;DHT22;23098;48.054;10.636;2023-06-10T12:44:55;25.80;79.50
37204;DHT22;23098;48.054;10.636;2023-06-10T12:47:32;26.00;79.50
37204;DHT22;23098;48.054;10.636;2023-06-10T12:50:00;26.60;81.20
37204;DHT22;23098;48.054;10.636;2023-06-10T12:52:26;26.80;76.90
37204;DHT22;23098;48.054;10.636;2023-06-10T12:54:54;26.80;77.00
37204;DHT22;23098;48.054;10.636;2023-06-10T12:57:20;27.00;77.40
37204;DHT22;23098;48.054;10.636;2023-06-10T12:59:46;26.50;78.10
37204;DHT22;23098;48.054;10.636;2023-06-10T13:02:17;26.70;79.00
37204;DHT22;23098;48.054;10.636;2023-06-10T13:04:44;26.30;78.70
37204;DHT22;23098;48.054;10.636;2023-06-10T13:07:09;25.30;81.10
37204;DHT22;23098;48.054;10.636;2023-06-10T13:09:36;25.70;82.10
37204;DHT22;23098;48.054;10.636;2023-06-10T13:12:02;25.60;81.00
37204;DHT22;23098;48.054;10.636;2023-06-10T13:14:28;26.20;81.60
37204;DHT22;23098;48.054;10.636;2023-06-10T13:16:55;26.00;80.60
37204;DHT22;23098;48.054;10.636;2023-06-10T13:19:20;25.70;80.60
37204;DHT22;23098;48.054;10.636;2023-06-10T13:21:47;26.20;79.40
37204;DHT22;23098;48.054;10.636;2023-06-10T13:24:13;25.80;79.80
37204;DHT22;23098;48.054;10.636;2023-06-10T13:26:38;26.40;80.60
37204;DHT22;23098;48.054;10.636;2023-06-10T13:29:04;27.00;79.50
37204;DHT22;23098;48.054;10.636;2023-06-10T13:31:30;26.80;78.60
37204;DHT22;23098;48.054;10.636;2023-06-10T13:33:57;26.50;78.80
37204;DHT22;23098;48.054;10.636;2023-06-10T13:36:23;26.60;80.10
37204;DHT22;23098;48.054;10.636;2023-06-10T13:38:49;25.70;80.40
37204;DHT22;23098;48.054;10.636;2023-06-10T13:41:14;24.90;82.00
37204;DHT22;23098;48.054;10.636;2023-06-10T13:43:40;24.30;83.10
37204;DHT22;23098;48.054;10.636;2023-06-10T13:46:05;24.10;83.90
37204;DHT22;23098;48.054;10.636;2023-06-10T13:48:31;24.70;83.30
37204;DHT22;23098;48.054;10.636;2023-06-10T13:50:56;25.10;82.70
37204;DHT22;23098;48.054;10.636;2023-06-10T13:53:22;25.60;82.60
37204;DHT22;23098;48.054;10.636;2023-06-10T13:55:48;25.70;82.50
37204;DHT22;23098;48.054;10.636;2023-06-10T13:58:14;26.10;81.30
37204;DHT22;23098;48.054;10.636;2023-06-10T14:00:39;26.20;80.80
37204;DHT22;23098;48.054;10.636;2023-06-10T14:03:05;26.20;80.90
37204;DHT22;23098;48.054;10.636;2023-06-10T14:05:30;25.90;79.60
37204;DHT22;23098;48.054;10.636;2023-06-10T14:07:56;26.00;80.70
37204;DHT22;23098;48.054;10.636;2023-06-10T14:10:21;26.50;78.80
37204;DHT22;23098;48.054;10.636;2023-06-10T14:12:47;26.40;78.00
37204;DHT22;23098;48.054;10.636;2023-06-10T14:15:13;26.10;79.60
37204;DHT22;23098;48.054;10.636;2023-06-10T14:17:38;26.20;80.00
37204;DHT22;23098;48.054;10.636;2023-06-10T14:20:04;26.40;79.40
37204;DHT22;23098;48.054;10.636;2023-06-10T14:22:32;26.30;78.60
37204;DHT22;23098;48.054;10.636;2023-06-10T14:24:58;26.30;79.50
37204;DHT22;23098;48.054;10.636;2023-06-10T14:27:23;26.20;79.30
37204;DHT22;23098;48.054;10.636;2023-06-10T14:29:49;26.70;79.00
37204;DHT22;23098;48.054;10.636;2023-06-10T14:32:14;27.20;79.90
37204;DHT22;23098;48.054;10.636;2023-06-10T14:34:41;25.70;79.30
37204;DHT22;23098;48.054;10.636;2023-06-10T14:37:07;25.50;80.60
37204;DHT22;23098;48.054;10.636;2023-06-10T14:39:33;25.40;81.20
37204;DHT22;23098;48.054;10.636;2023-06-10T14:41:58;25.90;80.70
37204;DHT22;23098;48.054;10.636;2023-06-10T14:44:24;25.90;81.40
37204;DHT22;23098;48.054;10.636;2023-06-10T14:46:49;26.80;78.90
37204;DHT22;23098;48.054;10.636;2023-06-10T14:49:15;26.40;79.60
37204;DHT22;23098;48.054;10.636;2023-06-10T14:51:40;26.20;78.70
37204;DHT22;23098;48.054;10.636;2023-06-10T14:54:06;25.70;78.90
37204;DHT22;23098;48.054;10.636;2023-06-10T14:56:32;25.30;80.40
37204;DHT22;23098;48.054;10.636;2023-06-10T14:58:57;26.00;79.50
37204;DHT22;23098;48.054;10.636;2023-06-10T15:01:23;25.60;79.10
37204;DHT22;23098;48.054;10.636;2023-06-10T15:03:48;25.70;80.80
37204;DHT22;23098;48.054;10.636;2023-06-10T15:06:13;25.40;79.50
37204;DHT22;23098;48.054;10.636;2023-06-10T15:08:42;25.30;80.00
37204;DHT22;23098;48.054;10.636;2023-06-10T15:11:08;25.30;79.80
37204;DHT22;23098;48.054;10.636;2023-06-10T15:13:33;25.60;80.40
37204;DHT22;23098;48.054;10.636;2023-06-10T15:15:59;24.90;79.90
37204;DHT22;23098;48.054;10.636;2023-06-10T15:18:26;25.00;80.30
37204;DHT22;23098;48.054;10.636;2023-06-10T15:20:51;25.50;80.20
37204;DHT22;23098;48.054;10.636;2023-06-10T15:23:17;25.90;80.30